sensor_id;sensor_type;location;lat;lon;timestamp;pressure;altitude;pressure_sealevel;temperature;humidity
35553;BME280;21656;46.054;13.614;2023-04-27T05:54:23;100828.88;;;11.73;100.00
35553;BME280;21656;46.054;13.614;2023-04-27T05:56:49;100837.97;;;11.83;100.00
35553;BME280;21656;46.054;13.614;2023-04-27T05:59:15;100828.91;;;11.95;100.00
35553;BME280;21656;46.054;13.614;2023-04-27T06:01:40;100843.75;;;12.01;100.00
35553;BME280;21656;46.054;13.614;2023-04-27T06:04:05;100842.03;;;12.00;100.00
35553;BME280;21656;46.054;13.614;2023-04-27T06:06:31;100832.84;;;11.91;100.00
35553;BME280;21656;46.054;13.614;2023-04-27T06:08:57;100830.88;;;11.93;100.00
35553;BME280;21656;46.054;13.614;2023-04-27T06:11:22;100834.91;;;11.99;100.00
35553;BME280;21656;46.054;13.614;2023-04-27T06:13:47;100834.91;;;11.99;100.00
35553;BME280;21656;46.054;13.614;2023-04-27T06:16:13;100839.97;;;12.03;100.00
35553;BME280;21656;46.054;13.614;2023-04-27T06:18:38;100841.53;;;12.06;100.00
35553;BME280;21656;46.054;13.614;2023-04-27T06:21:03;100833.56;;;12.04;100.00
35553;BME280;21656;46.054;13.614;2023-04-27T06:23:28;100834.19;;;12.08;100.00
35553;BME280;21656;46.054;13.614;2023-04-27T06:25:54;100841.19;;;12.10;97.24
35553;BME280;21656;46.054;13.614;2023-04-27T06:28:19;100835.75;;;12.22;92.77
35553;BME280;21656;46.054;13.614;2023-04-27T06:30:44;100831.22;;;12.33;88.49
35553;BME280;21656;46.054;13.614;2023-04-27T06:33:10;100831.94;;;12.47;88.46
35553;BME280;21656;46.054;13.614;2023-04-27T06:35:35;100821.09;;;12.58;90.66
35553;BME280;21656;46.054;13.614;2023-04-27T06:38:00;100827.31;;;12.70;83.44
35553;BME280;21656;46.054;13.614;2023-04-27T06:40:26;100821.66;;;12.73;83.89
35553;BME280;21656;46.054;13.614;2023-04-27T06:42:51;100836.75;;;12.75;81.08
35553;BME280;21656;46.054;13.614;2023-04-27T06:45:16;100838.00;;;12.71;78.48
35553;BME280;21656;46.054;13.614;2023-04-27T06:47:42;100841.41;;;12.73;81.12
35553;BME280;21656;46.054;13.614;2023-04-27T06:50:07;100841.66;;;12.82;78.37
35553;BME280;21656;46.054;13.614;2023-04-27T06:52:32;100852.56;;;12.91;75.96
35553;BME280;21656;46.054;13.614;2023-04-27T06:54:58;100852.50;;;13.02;77.40
35553;BME280;21656;46.054;13.614;2023-04-27T06:57:23;100851.59;;;13.13;75.59
35553;BME280;21656;46.054;13.614;2023-04-27T06:59:49;100855.91;;;13.16;75.31
35553;BME280;21656;46.054;13.614;2023-04-27T07:02:15;100851.09;;;13.19;74.45
35553;BME280;21656;46.054;13.614;2023-04-27T07:04:40;100845.78;;;13.29;76.19
35553;BME280;21656;46.054;13.614;2023-04-27T07:07:05;100845.38;;;13.34;73.38
35553;BME280;21656;46.054;13.614;2023-04-27T07:09:31;100838.63;;;13.39;73.91
35553;BME280;21656;46.054;13.614;2023-04-27T07:11:56;100838.66;;;13.49;72.33
35553;BME280;21656;46.054;13.614;2023-04-27T07:14:22;100835.16;;;13.58;73.06
35553;BME280;21656;46.054;13.614;2023-04-27T07:16:48;100842.75;;;13.64;71.41
35553;BME280;21656;46.054;13.614;2023-04-27T07:19:13;100848.38;;;13.73;72.93
35553;BME280;21656;46.054;13.614;2023-04-27T07:21:38;100846.41;;;13.84;70.92
35553;BME280;21656;46.054;13.614;2023-04-27T07:24:03;100847.47;;;13.93;69.11
35553;BME280;21656;46.054;13.614;2023-04-27T07:26:29;100849.78;;;13.98;68.02
35553;BME280;21656;46.054;13.614;2023-04-27T07:28:56;100839.94;;;13.97;70.74
35553;BME280;21656;46.054;13.614;2023-04-27T07:31:21;100844.53;;;14.06;70.87
35553;BME280;21656;46.054;13.614;2023-04-27T07:33:46;100843.91;;;14.23;71.08
35553;BME280;21656;46.054;13.614;2023-04-27T07:36:11;100842.94;;;14.34;69.43
35553;BME280;21656;46.054;13.614;2023-04-27T07:38:37;100848.66;;;14.41;66.53
35553;BME280;21656;46.054;13.614;2023-04-27T07:41:02;100836.72;;;14.53;69.30
35553;BME280;21656;46.054;13.614;2023-04-27T07:43:29;100842.75;;;14.57;64.83
35553;BME280;21656;46.054;13.614;2023-04-27T07:45:56;100842.16;;;14.63;64.08
35553;BME280;21656;46.054;13.614;2023-04-27T07:48:22;100842.19;;;14.72;66.40
35553;BME280;21656;46.054;13.614;2023-04-27T07:50:47;100841.06;;;14.85;64.19
35553;BME280;21656;46.054;13.614;2023-04-27T07:53:13;100839.50;;;14.82;64.50
35553;BME280;21656;46.054;13.614;2023-04-27T07:55:38;100852.66;;;14.97;62.33
35553;BME280;21656;46.054;13.614;2023-04-27T07:58:03;100838.50;;;15.03;62.31
35553;BME280;21656;46.054;13.614;2023-04-27T08:00:29;100846.66;;;15.12;61.63
35553;BME280;21656;46.054;13.614;2023-04-27T08:02:54;100842.22;;;15.21;61.96
35553;BME280;21656;46.054;13.614;2023-04-27T08:05:19;100845.78;;;15.31;61.98
35553;BME280;21656;46.054;13.614;2023-04-27T08:07:45;100840.63;;;15.38;59.95
35553;BME280;21656;46.054;13.614;2023-04-27T08:10:10;100831.78;;;15.36;60.24
35553;BME280;21656;46.054;13.614;2023-04-27T08:12:35;100839.78;;;15.47;59.95
35553;BME280;21656;46.054;13.614;2023-04-27T08:15:01;100828.00;;;15.66;60.14
35553;BME280;21656;46.054;13.614;2023-04-27T08:17:26;100828.75;;;15.78;59.06
35553;BME280;21656;46.054;13.614;2023-04-27T08:19:51;100838.66;;;15.97;57.26
35553;BME280;21656;46.054;13.614;2023-04-27T08:22:17;100827.22;;;16.03;57.77
35553;BME280;21656;46.054;13.614;2023-04-27T08:24:42;100831.03;;;16.10;58.35
35553;BME280;21656;46.054;13.614;2023-04-27T08:27:07;100824.56;;;16.21;57.20
35553;BME280;21656;46.054;13.614;2023-04-27T08:29:33;100817.22;;;16.31;57.68
35553;BME280;21656;46.054;13.614;2023-04-27T08:31:59;100816.06;;;16.34;57.80
35553;BME280;21656;46.054;13.614;2023-04-27T08:34:25;100825.88;;;16.44;57.32
35553;BME280;21656;46.054;13.614;2023-04-27T08:36:51;100828.84;;;16.51;56.50
35553;BME280;21656;46.054;13.614;2023-04-27T08:39:17;100820.91;;;16.58;55.13
35553;BME280;21656;46.054;13.614;2023-04-27T08:41:43;100818.59;;;16.63;56.10
35553;BME280;21656;46.054;13.614;2023-04-27T08:44:08;100824.38;;;16.78;56.36
35553;BME280;21656;46.054;13.614;2023-04-27T08:46:34;100824.47;;;16.86;54.30
35553;BME280;21656;46.054;13.614;2023-04-27T08:49:00;100820.28;;;16.92;54.20
35553;BME280;21656;46.054;13.614;2023-04-27T08:51:26;100810.19;;;17.02;54.00
35553;BME280;21656;46.054;13.614;2023-04-27T08:53:53;100814.16;;;17.07;53.77
35553;BME280;21656;46.054;13.614;2023-04-27T08:56:19;100818.88;;;17.23;54.56
35553;BME280;21656;46.054;13.614;2023-04-27T08:58:47;100825.06;;;17.33;54.02
35553;BME280;21656;46.054;13.614;2023-04-27T09:01:12;100827.66;;;17.35;52.17
35553;BME280;21656;46.054;13.614;2023-04-27T09:03:38;100820.94;;;17.47;53.14
35553;BME280;21656;46.054;13.614;2023-04-27T09:06:03;100819.91;;;17.48;51.77
35553;BME280;21656;46.054;13.614;2023-04-27T09:08:45;100825.38;;;17.48;52.72
35553;BME280;21656;46.054;13.614;2023-04-27T09:11:11;100827.44;;;17.54;51.85
35553;BME280;21656;46.054;13.614;2023-04-27T09:13:37;100837.28;;;17.47;51.52
35553;BME280;21656;46.054;13.614;2023-04-27T09:16:03;100831.69;;;17.31;50.50
35553;BME280;21656;46.054;13.614;2023-04-27T09:18:28;100832.53;;;17.31;51.53
35553;BME280;21656;46.054;13.614;2023-04-27T09:20:54;100836.91;;;17.42;52.96
35553;BME280;21656;46.054;13.614;2023-04-27T09:23:26;100833.91;;;17.53;52.65
35553;BME280;21656;46.054;13.614;2023-04-27T09:25:52;100841.03;;;17.54;53.10
35553;BME280;21656;46.054;13.614;2023-04-27T09:28:17;100841.09;;;17.37;50.80
35553;BME280;21656;46.054;13.614;2023-04-27T09:30:49;100835.97;;;17.33;53.05
35553;BME280;21656;46.054;13.614;2023-04-27T09:33:21;100831.38;;;17.16;52.23
35553;BME280;21656;46.054;13.614;2023-04-27T09:35:46;100836.06;;;17.06;52.20
35553;BME280;21656;46.054;13.614;2023-04-27T09:38:12;100833.50;;;17.04;53.67
35553;BME280;21656;46.054;13.614;2023-04-27T09:40:38;100836.75;;;17.08;53.54
35553;BME280;21656;46.054;13.614;2023-04-27T09:43:04;100840.25;;;17.00;53.27
35553;BME280;21656;46.054;13.614;2023-04-27T09:45:31;100831.47;;;17.06;53.79
35553;BME280;21656;46.054;13.614;2023-04-27T09:47:57;100824.47;;;17.04;53.94
35553;BME280;21656;46.054;13.614;2023-04-27T09:50:22;100833.56;;;17.13;53.22
35553;BME280;21656;46.054;13.614;2023-04-27T09:52:48;100830.69;;;17.14;52.55
35553;BME280;21656;46.054;13.614;2023-04-27T09:55:17;100827.03;;;17.23;52.83
35553;BME280;21656;46.054;13.614;2023-04-27T09:57:46;100829.13;;;17.29;52.29
35553;BME280;21656;46.054;13.614;2023-04-27T10:08:24;100820.81;;;17.57;52.09
35553;BME280;21656;46.054;13.614;2023-04-27T10:10:49;100817.25;;;17.57;52.06
35553;BME280;21656;46.054;13.614;2023-04-27T10:13:21;100826.84;;;17.43;51.76
35553;BME280;21656;46.054;13.614;2023-04-27T10:15:47;100822.03;;;17.37;51.86
35553;BME280;21656;46.054;13.614;2023-04-27T10:18:13;100823.34;;;17.50;52.38
35553;BME280;21656;46.054;13.614;2023-04-27T10:20:49;100820.81;;;17.57;51.80
35553;BME280;21656;46.054;13.614;2023-04-27T10:23:25;100818.16;;;17.65;53.69
35553;BME280;21656;46.054;13.614;2023-04-27T10:25:52;100814.00;;;17.79;53.10
35553;BME280;21656;46.054;13.614;2023-04-27T10:28:17;100813.53;;;17.84;52.09
35553;BME280;21656;46.054;13.614;2023-04-27T10:30:45;100804.84;;;17.80;51.01
35553;BME280;21656;46.054;13.614;2023-04-27T10:33:11;100809.19;;;17.99;53.12
35553;BME280;21656;46.054;13.614;2023-04-27T10:35:41;100805.16;;;18.03;49.54
35553;BME280;21656;46.054;13.614;2023-04-27T10:38:07;100806.50;;;18.07;48.90
35553;BME280;21656;46.054;13.614;2023-04-27T10:40:33;100803.88;;;18.24;50.07
35553;BME280;21656;46.054;13.614;2023-04-27T10:43:09;100798.88;;;18.61;49.05
35553;BME280;21656;46.054;13.614;2023-04-27T10:45:35;100793.50;;;18.94;49.76
35553;BME280;21656;46.054;13.614;2023-04-27T10:48:00;100795.34;;;18.94;44.93
35553;BME280;21656;46.054;13.614;2023-04-27T10:50:26;100794.34;;;19.11;45.29
35553;BME280;21656;46.054;13.614;2023-04-27T10:52:51;100790.78;;;19.02;44.10
35553;BME280;21656;46.054;13.614;2023-04-27T10:55:19;100791.78;;;19.67;45.06
35553;BME280;21656;46.054;13.614;2023-04-27T10:57:46;100799.25;;;20.29;40.81
35553;BME280;21656;46.054;13.614;2023-04-27T11:00:12;100787.50;;;20.20;40.86
35553;BME280;21656;46.054;13.614;2023-04-27T11:02:40;100786.31;;;20.14;40.93
35553;BME280;21656;46.054;13.614;2023-04-27T11:05:18;100790.16;;;19.97;40.69
35553;BME280;21656;46.054;13.614;2023-04-27T11:07:44;100782.69;;;19.75;41.48
35553;BME280;21656;46.054;13.614;2023-04-27T11:10:13;100782.88;;;19.65;42.71
35553;BME280;21656;46.054;13.614;2023-04-27T11:12:39;100785.28;;;19.76;42.66
35553;BME280;21656;46.054;13.614;2023-04-27T11:15:05;100778.44;;;19.72;41.72
35553;BME280;21656;46.054;13.614;2023-04-27T11:17:31;100782.88;;;19.65;40.53
35553;BME280;21656;46.054;13.614;2023-04-27T11:19:56;100780.50;;;19.70;43.02
35553;BME280;21656;46.054;13.614;2023-04-27T11:22:21;100779.63;;;19.78;42.45
35553;BME280;21656;46.054;13.614;2023-04-27T11:24:47;100778.22;;;19.98;42.14
35553;BME280;21656;46.054;13.614;2023-04-27T11:27:13;100772.88;;;20.05;41.27
35553;BME280;21656;46.054;13.614;2023-04-27T11:29:38;100771.56;;;19.84;37.78
35553;BME280;21656;46.054;13.614;2023-04-27T11:32:04;100765.47;;;19.66;37.18
35553;BME280;21656;46.054;13.614;2023-04-27T11:34:29;100759.59;;;19.94;39.26
35553;BME280;21656;46.054;13.614;2023-04-27T11:37:04;100758.16;;;20.14;38.98
35553;BME280;21656;46.054;13.614;2023-04-27T11:39:36;100764.81;;;20.11;38.59
35553;BME280;21656;46.054;13.614;2023-04-27T11:42:18;100765.25;;;20.31;35.15
35553;BME280;21656;46.054;13.614;2023-04-27T11:44:58;100762.72;;;20.53;35.78
35553;BME280;21656;46.054;13.614;2023-04-27T11:47:24;100756.06;;;20.55;35.78
35553;BME280;21656;46.054;13.614;2023-04-27T11:49:53;100770.63;;;20.56;34.58
35553;BME280;21656;46.054;13.614;2023-04-27T11:52:19;100761.59;;;20.70;34.92
35553;BME280;21656;46.054;13.614;2023-04-27T11:54:48;100768.78;;;20.40;32.59
35553;BME280;21656;46.054;13.614;2023-04-27T11:57:14;100749.69;;;20.86;34.97
35553;BME280;21656;46.054;13.614;2023-04-27T11:59:41;100762.50;;;21.09;33.83
35553;BME280;21656;46.054;13.614;2023-04-27T12:02:07;100765.47;;;21.45;34.13
35553;BME280;21656;46.054;13.614;2023-04-27T12:04:32;100753.38;;;21.54;34.01
35553;BME280;21656;46.054;13.614;2023-04-27T12:06:59;100755.41;;;21.75;35.25
35553;BME280;21656;46.054;13.614;2023-04-27T12:09:24;100748.97;;;21.83;35.09
35553;BME280;21656;46.054;13.614;2023-04-27T12:11:50;100760.47;;;21.49;35.08
35553;BME280;21656;46.054;13.614;2023-04-27T12:14:15;100763.28;;;21.40;35.37
35553;BME280;21656;46.054;13.614;2023-04-27T12:16:40;100759.13;;;21.07;34.45
35553;BME280;21656;46.054;13.614;2023-04-27T12:19:05;100748.47;;;21.50;35.36
35553;BME280;21656;46.054;13.614;2023-04-27T12:21:31;100759.44;;;21.64;33.95
35553;BME280;21656;46.054;13.614;2023-04-27T12:23:57;100756.91;;;21.63;34.04
35553;BME280;21656;46.054;13.614;2023-04-27T12:26:23;100755.47;;;22.12;35.25
35553;BME280;21656;46.054;13.614;2023-04-27T12:28:48;100751.94;;;22.69;35.92
35553;BME280;21656;46.054;13.614;2023-04-27T12:31:14;100752.81;;;23.12;34.13
35553;BME280;21656;46.054;13.614;2023-04-27T12:33:40;100749.75;;;23.57;34.44
35553;BME280;21656;46.054;13.614;2023-04-27T12:36:06;100758.09;;;24.05;32.74
35553;BME280;21656;46.054;13.614;2023-04-27T12:38:31;100760.81;;;24.33;32.03
35553;BME280;21656;46.054;13.614;2023-04-27T12:40:57;100754.53;;;24.53;31.92
35553;BME280;21656;46.054;13.614;2023-04-27T12:43:23;100753.53;;;24.80;32.08
35553;BME280;21656;46.054;13.614;2023-04-27T12:45:48;100753.97;;;24.84;30.54
35553;BME280;21656;46.054;13.614;2023-04-27T12:48:14;100746.56;;;24.84;31.07
35553;BME280;21656;46.054;13.614;2023-04-27T12:50:39;100753.09;;;24.83;31.26
35553;BME280;21656;46.054;13.614;2023-04-27T12:53:05;100754.78;;;24.71;30.38
35553;BME280;21656;46.054;13.614;2023-04-27T12:55:30;100754.41;;;23.85;30.31
35553;BME280;21656;46.054;13.614;2023-04-27T12:57:56;100745.94;;;23.23;30.76
35553;BME280;21656;46.054;13.614;2023-04-27T13:00:22;100737.81;;;23.71;31.66
35553;BME280;21656;46.054;13.614;2023-04-27T13:02:47;100750.50;;;22.94;30.82
35553;BME280;21656;46.054;13.614;2023-04-27T13:05:12;100744.88;;;23.24;32.13
35553;BME280;21656;46.054;13.614;2023-04-27T13:07:38;100745.59;;;23.11;31.31
35553;BME280;21656;46.054;13.614;2023-04-27T13:10:04;100751.94;;;22.69;31.04
35553;BME280;21656;46.054;13.614;2023-04-27T13:12:29;100741.69;;;22.56;31.76
35553;BME280;21656;46.054;13.614;2023-04-27T13:14:54;100750.88;;;22.48;31.68
35553;BME280;21656;46.054;13.614;2023-04-27T13:17:20;100743.13;;;22.37;31.98
35553;BME280;21656;46.054;13.614;2023-04-27T13:19:45;100743.44;;;22.27;32.59
35553;BME280;21656;46.054;13.614;2023-04-27T13:22:10;100758.66;;;22.15;33.11
35553;BME280;21656;46.054;13.614;2023-04-27T13:24:36;100749.53;;;21.93;32.50
35553;BME280;21656;46.054;13.614;2023-04-27T13:27:01;100752.94;;;21.95;32.48
35553;BME280;21656;46.054;13.614;2023-04-27T13:29:27;100740.25;;;22.24;32.64
35553;BME280;21656;46.054;13.614;2023-04-27T13:31:52;100741.34;;;22.66;32.66
35553;BME280;21656;46.054;13.614;2023-04-27T13:34:17;100743.63;;;22.84;32.45
35553;BME280;21656;46.054;13.614;2023-04-27T13:36:43;100748.91;;;23.00;33.24
35553;BME280;21656;46.054;13.614;2023-04-27T13:39:08;100736.78;;;22.94;32.00
35553;BME280;21656;46.054;13.614;2023-04-27T13:41:34;100744.34;;;22.71;32.23
35553;BME280;21656;46.054;13.614;2023-04-27T13:43:59;100751.69;;;21.98;32.91
35553;BME280;21656;46.054;13.614;2023-04-27T13:46:25;100748.59;;;21.86;33.25
35553;BME280;21656;46.054;13.614;2023-04-27T13:48:51;100748.94;;;21.53;32.75
35553;BME280;21656;46.054;13.614;2023-04-27T13:51:16;100745.44;;;21.59;34.61
35553;BME280;21656;46.054;13.614;2023-04-27T13:53:41;100754.44;;;21.68;35.75
35553;BME280;21656;46.054;13.614;2023-04-27T13:56:06;100750.75;;;21.61;32.39
35553;BME280;21656;46.054;13.614;2023-04-27T13:58:32;100745.16;;;21.16;32.71
35553;BME280;21656;46.054;13.614;2023-04-27T14:00:57;100749.69;;;21.24;35.58
35553;BME280;21656;46.054;13.614;2023-04-27T14:03:22;100752.94;;;21.28;36.06
35553;BME280;21656;46.054;13.614;2023-04-27T14:05:48;100751.22;;;21.12;35.18
35553;BME280;21656;46.054;13.614;2023-04-27T14:08:15;100747.59;;;21.11;35.87
35553;BME280;21656;46.054;13.614;2023-04-27T14:10:40;100756.31;;;21.15;34.68
35553;BME280;21656;46.054;13.614;2023-04-27T14:13:06;100755.34;;;21.08;35.49
35553;BME280;21656;46.054;13.614;2023-04-27T14:15:31;100745.31;;;21.00;35.80
35553;BME280;21656;46.054;13.614;2023-04-27T14:18:01;100742.66;;;20.92;35.65
35553;BME280;21656;46.054;13.614;2023-04-27T14:20:27;100750.19;;;20.90;35.63
35553;BME280;21656;46.054;13.614;2023-04-27T14:22:53;100746.41;;;20.37;33.98
35553;BME280;21656;46.054;13.614;2023-04-27T14:25:18;100743.25;;;20.17;35.67
35553;BME280;21656;46.054;13.614;2023-04-27T14:27:43;100741.63;;;20.30;36.73
35553;BME280;21656;46.054;13.614;2023-04-27T14:30:08;100749.16;;;20.37;36.78
35553;BME280;21656;46.054;13.614;2023-04-27T14:32:34;100746.78;;;20.25;36.44
35553;BME280;21656;46.054;13.614;2023-04-27T14:35:00;100755.88;;;20.18;36.72
35553;BME280;21656;46.054;13.614;2023-04-27T14:37:25;100749.19;;;19.89;36.20
35553;BME280;21656;46.054;13.614;2023-04-27T14:39:50;100753.03;;;19.55;35.82
35553;BME280;21656;46.054;13.614;2023-04-27T14:42:16;100743.44;;;19.59;37.02
35553;BME280;21656;46.054;13.614;2023-04-27T14:44:41;100748.38;;;19.64;37.14
35553;BME280;21656;46.054;13.614;2023-04-27T14:47:06;100747.75;;;19.45;36.71
35553;BME280;21656;46.054;13.614;2023-04-27T14:49:31;100744.50;;;19.42;36.64
35553;BME280;21656;46.054;13.614;2023-04-27T14:51:57;100740.25;;;19.31;36.62
35553;BME280;21656;46.054;13.614;2023-04-27T14:54:24;100743.97;;;19.46;36.90
35553;BME280;21656;46.054;13.614;2023-04-27T14:56:49;100740.59;;;19.36;36.77
35553;BME280;21656;46.054;13.614;2023-04-27T14:59:15;100737.84;;;19.36;36.96
35553;BME280;21656;46.054;13.614;2023-04-27T15:01:40;100741.28;;;19.30;37.43
35553;BME280;21656;46.054;13.614;2023-04-27T15:04:08;100738.72;;;19.37;38.28
35553;BME280;21656;46.054;13.614;2023-04-27T15:06:34;100749.13;;;19.33;37.89
35553;BME280;21656;46.054;13.614;2023-04-27T15:09:00;100738.06;;;19.35;38.01
35553;BME280;21656;46.054;13.614;2023-04-27T15:11:25;100738.72;;;19.37;39.55
35553;BME280;21656;46.054;13.614;2023-04-27T15:13:50;100743.66;;;19.33;37.57
35553;BME280;21656;46.054;13.614;2023-04-27T15:16:16;100739.06;;;19.34;37.74
35553;BME280;21656;46.054;13.614;2023-04-27T15:18:41;100736.00;;;19.20;37.35
35553;BME280;21656;46.054;13.614;2023-04-27T15:21:07;100728.31;;;19.24;37.75
35553;BME280;21656;46.054;13.614;2023-04-27T15:23:32;100729.19;;;19.24;38.59
35553;BME280;21656;46.054;13.614;2023-04-27T15:26:01;100726.78;;;19.21;38.05
35553;BME280;21656;46.054;13.614;2023-04-27T15:28:26;100731.41;;;19.21;38.72
35553;BME280;21656;46.054;13.614;2023-04-27T15:30:51;100730.38;;;19.14;38.44
35553;BME280;21656;46.054;13.614;2023-04-27T15:33:17;100730.22;;;19.07;38.96
35553;BME280;21656;46.054;13.614;2023-04-27T15:35:42;100723.25;;;19.04;39.12
35553;BME280;21656;46.054;13.614;2023-04-27T15:38:08;100728.69;;;18.96;38.88
35553;BME280;21656;46.054;13.614;2023-04-27T15:40:37;100720.66;;;19.03;39.26
35553;BME280;21656;46.054;13.614;2023-04-27T15:43:06;100726.13;;;19.11;39.51
35553;BME280;21656;46.054;13.614;2023-04-27T15:45:32;100726.13;;;19.03;39.57
35553;BME280;21656;46.054;13.614;2023-04-27T15:47:57;100723.94;;;19.07;40.34
35553;BME280;21656;46.054;13.614;2023-04-27T15:50:22;100723.38;;;19.11;40.50
35553;BME280;21656;46.054;13.614;2023-04-27T15:52:48;100720.50;;;19.13;40.22
35553;BME280;21656;46.054;13.614;2023-04-27T15:55:14;100719.13;;;19.09;40.31
35553;BME280;21656;46.054;13.614;2023-04-27T15:57:39;100723.94;;;19.07;40.44
35553;BME280;21656;46.054;13.614;2023-04-27T16:00:05;100730.91;;;19.09;40.22
35553;BME280;21656;46.054;13.614;2023-04-27T16:02:32;100730.72;;;19.11;40.89
35553;BME280;21656;46.054;13.614;2023-04-27T16:04:57;100718.09;;;18.93;40.60
35553;BME280;21656;46.054;13.614;2023-04-27T16:07:22;100712.84;;;19.00;41.69
35553;BME280;21656;46.054;13.614;2023-04-27T16:09:47;100712.47;;;19.03;41.79
35553;BME280;21656;46.054;13.614;2023-04-27T16:12:13;100719.47;;;18.97;42.81
35553;BME280;21656;46.054;13.614;2023-04-27T16:14:38;100710.09;;;19.00;42.56
35553;BME280;21656;46.054;13.614;2023-04-27T16:17:03;100710.94;;;19.00;42.85
35553;BME280;21656;46.054;13.614;2023-04-27T16:19:28;100716.91;;;18.96;42.87
35553;BME280;21656;46.054;13.614;2023-04-27T16:21:54;100717.25;;;19.01;42.51
35553;BME280;21656;46.054;13.614;2023-04-27T16:24:19;100715.38;;;18.93;42.12
35553;BME280;21656;46.054;13.614;2023-04-27T16:26:45;100719.47;;;18.81;42.53
35553;BME280;21656;46.054;13.614;2023-04-27T16:29:10;100717.75;;;18.72;41.98
35553;BME280;21656;46.054;13.614;2023-04-27T16:31:36;100717.41;;;18.67;42.60
35553;BME280;21656;46.054;13.614;2023-04-27T16:34:01;100720.13;;;18.67;43.71
35553;BME280;21656;46.054;13.614;2023-04-27T16:36:28;100719.41;;;18.48;42.72
35553;BME280;21656;46.054;13.614;2023-04-27T16:38:53;100723.34;;;18.54;42.56
35553;BME280;21656;46.054;13.614;2023-04-27T16:41:18;100722.31;;;18.55;43.39
35553;BME280;21656;46.054;13.614;2023-04-27T16:43:44;100732.53;;;18.45;42.20
35553;BME280;21656;46.054;13.614;2023-04-27T16:46:10;100746.31;;;18.43;42.22
35553;BME280;21656;46.054;13.614;2023-04-27T16:48:35;100732.69;;;18.35;42.81
35553;BME280;21656;46.054;13.614;2023-04-27T16:51:01;100730.78;;;18.27;42.64
35553;BME280;21656;46.054;13.614;2023-04-27T16:53:26;100739.97;;;18.18;43.53
35553;BME280;21656;46.054;13.614;2023-04-27T16:55:51;100729.22;;;18.16;44.42
35553;BME280;21656;46.054;13.614;2023-04-27T16:58:17;100733.66;;;18.17;44.81
35553;BME280;21656;46.054;13.614;2023-04-27T17:00:42;100733.63;;;18.09;45.27
35553;BME280;21656;46.054;13.614;2023-04-27T17:03:07;100738.72;;;18.04;44.01
35553;BME280;21656;46.054;13.614;2023-04-27T17:05:33;100728.78;;;17.95;46.00
35553;BME280;21656;46.054;13.614;2023-04-27T17:07:58;100737.16;;;17.93;46.16
35553;BME280;21656;46.054;13.614;2023-04-27T17:10:24;100748.03;;;17.85;46.82
35553;BME280;21656;46.054;13.614;2023-04-27T17:12:49;100749.78;;;17.76;47.79
35553;BME280;21656;46.054;13.614;2023-04-27T17:15:15;100751.31;;;17.71;49.18
35553;BME280;21656;46.054;13.614;2023-04-27T17:17:42;100746.53;;;17.65;48.99
35553;BME280;21656;46.054;13.614;2023-04-27T17:20:08;100749.03;;;17.58;49.76
35553;BME280;21656;46.054;13.614;2023-04-27T17:22:34;100748.66;;;17.53;50.13
35553;BME280;21656;46.054;13.614;2023-04-27T17:24:59;100745.88;;;17.45;51.81
35553;BME280;21656;46.054;13.614;2023-04-27T17:27:25;100749.03;;;17.32;53.25
35553;BME280;21656;46.054;13.614;2023-04-27T17:29:50;100747.13;;;17.24;54.36
35553;BME280;21656;46.054;13.614;2023-04-27T17:32:15;100755.06;;;17.18;55.32
35553;BME280;21656;46.054;13.614;2023-04-27T17:34:41;100754.09;;;17.09;54.52
35553;BME280;21656;46.054;13.614;2023-04-27T17:37:06;100761.38;;;17.00;56.55
35553;BME280;21656;46.054;13.614;2023-04-27T17:39:32;100756.72;;;16.93;57.39
35553;BME280;21656;46.054;13.614;2023-04-27T17:41:57;100751.41;;;16.73;59.55
35553;BME280;21656;46.054;13.614;2023-04-27T17:44:22;100754.81;;;16.57;62.65
35553;BME280;21656;46.054;13.614;2023-04-27T17:46:48;100753.50;;;16.43;65.37
35553;BME280;21656;46.054;13.614;2023-04-27T17:49:15;100760.91;;;16.23;66.77
35553;BME280;21656;46.054;13.614;2023-04-27T17:51:41;100760.91;;;16.23;69.92
35553;BME280;21656;46.054;13.614;2023-04-27T17:54:06;100758.66;;;16.19;71.64
35553;BME280;21656;46.054;13.614;2023-04-27T17:56:31;100754.97;;;16.10;73.87
35553;BME280;21656;46.054;13.614;2023-04-27T17:58:57;100764.19;;;15.99;74.50
35553;BME280;21656;46.054;13.614;2023-04-27T18:01:22;100769.41;;;15.83;78.48
35553;BME280;21656;46.054;13.614;2023-04-27T18:03:47;100767.75;;;15.72;80.83
35553;BME280;21656;46.054;13.614;2023-04-27T18:06:13;100776.88;;;15.61;82.77
35553;BME280;21656;46.054;13.614;2023-04-27T18:08:38;100775.94;;;15.43;85.65
35553;BME280;21656;46.054;13.614;2023-04-27T18:11:04;100786.25;;;15.30;88.61
35553;BME280;21656;46.054;13.614;2023-04-27T18:13:30;100790.84;;;15.20;88.36
35553;BME280;21656;46.054;13.614;2023-04-27T18:15:56;100789.81;;;15.11;87.49
35553;BME280;21656;46.054;13.614;2023-04-27T18:18:22;100799.28;;;14.97;91.04
35553;BME280;21656;46.054;13.614;2023-04-27T18:20:47;100798.41;;;14.87;96.66
35553;BME280;21656;46.054;13.614;2023-04-27T18:23:13;100813.22;;;14.73;98.36
35553;BME280;21656;46.054;13.614;2023-04-27T18:25:38;100803.69;;;14.69;98.21
35553;BME280;21656;46.054;13.614;2023-04-27T18:28:04;100805.53;;;14.59;100.00
35553;BME280;21656;46.054;13.614;2023-04-27T18:30:29;100814.84;;;14.45;100.00
35553;BME280;21656;46.054;13.614;2023-04-27T18:32:55;100824.81;;;14.35;100.00
35553;BME280;21656;46.054;13.614;2023-04-27T18:35:20;100820.81;;;14.29;100.00